createdAt,value
2022-11-10T00:00:22.659Z,7.50
2022-11-10T00:02:50.703Z,7.50
2022-11-10T00:05:19.119Z,7.50
2022-11-10T00:07:47.122Z,7.50
2022-11-10T00:10:16.483Z,7.50
2022-11-10T00:12:45.865Z,7.60
2022-11-10T00:15:31.433Z,7.50
2022-11-10T00:18:01.878Z,7.50
2022-11-10T00:20:29.849Z,7.50
2022-11-10T00:22:57.903Z,7.50
2022-11-10T00:25:26.230Z,7.50
2022-11-10T00:27:55.569Z,7.50
2022-11-10T00:30:23.549Z,7.50
2022-11-10T00:32:51.573Z,7.50
2022-11-10T00:35:20.043Z,7.40
2022-11-10T00:37:50.598Z,7.40
2022-11-10T00:40:19.237Z,7.40
2022-11-10T00:42:47.405Z,7.50
2022-11-10T00:45:16.871Z,7.50
2022-11-10T00:47:46.733Z,7.60
2022-11-10T00:50:14.807Z,7.50
2022-11-10T00:52:42.785Z,7.60
2022-11-10T00:55:10.756Z,7.60
2022-11-10T00:57:38.760Z,7.50
2022-11-10T01:00:07.876Z,7.50
2022-11-10T01:02:37.228Z,7.60
2022-11-10T01:05:05.501Z,7.60
2022-11-10T01:07:33.669Z,7.50
2022-11-10T01:10:01.653Z,7.50
2022-11-10T01:12:30.742Z,7.50
2022-11-10T01:14:58.794Z,7.50
2022-11-10T01:17:26.838Z,7.50
2022-11-10T01:19:56.166Z,7.50
2022-11-10T01:22:24.160Z,7.60
2022-11-10T01:24:52.125Z,7.60
2022-11-10T01:27:20.137Z,7.50
2022-11-10T01:29:48.167Z,7.60
2022-11-10T01:32:16.181Z,7.60
2022-11-10T01:34:44.179Z,7.60
2022-11-10T01:37:14.228Z,7.60
2022-11-10T01:39:42.258Z,7.60
2022-11-10T01:42:10.252Z,7.50
2022-11-10T01:44:43.349Z,7.60
2022-11-10T01:47:11.313Z,7.60
2022-11-10T01:49:39.371Z,7.60
2022-11-10T01:52:10.934Z,7.60
2022-11-10T01:54:43.881Z,7.60
2022-11-10T01:57:13.933Z,7.60
2022-11-10T01:59:45.763Z,7.60
2022-11-10T02:02:20.903Z,7.60
2022-11-10T02:04:51.219Z,7.70
2022-11-10T02:07:20.393Z,7.60
2022-11-10T02:09:50.060Z,7.70
2022-11-10T02:12:36.878Z,7.70
2022-11-10T02:15:06.253Z,7.70
2022-11-10T02:17:34.672Z,7.60
2022-11-10T02:20:05.021Z,7.70
2022-11-10T02:22:34.997Z,7.60
2022-11-10T02:25:03.151Z,7.70
2022-11-10T02:27:31.772Z,7.60
2022-11-10T02:30:00.172Z,7.70
2022-11-10T02:32:28.727Z,7.70
2022-11-10T02:34:56.775Z,7.70
2022-11-10T02:37:24.772Z,7.60
2022-11-10T02:39:54.183Z,7.60
2022-11-10T02:42:22.357Z,7.60
2022-11-10T02:44:50.949Z,7.70
2022-11-10T02:47:19.023Z,7.70
2022-11-10T02:49:47.014Z,7.70
2022-11-10T02:52:15.006Z,7.70
2022-11-10T02:54:42.999Z,7.70
2022-11-10T02:57:12.350Z,7.70
2022-11-10T02:59:40.338Z,7.70
2022-11-10T03:02:08.300Z,7.70
2022-11-10T03:04:36.320Z,7.70
2022-11-10T03:07:04.395Z,7.90
2022-11-10T03:09:32.440Z,7.70
2022-11-10T03:12:00.433Z,7.80
2022-11-10T03:14:29.803Z,7.70
2022-11-10T03:16:57.783Z,7.70
2022-11-10T03:19:25.783Z,7.80
2022-11-10T03:21:53.819Z,7.80
2022-11-10T03:24:21.849Z,7.80
2022-11-10T03:26:49.847Z,7.80
2022-11-10T03:29:17.836Z,7.80
2022-11-10T03:31:47.223Z,7.90
2022-11-10T03:34:15.251Z,7.80
2022-11-10T03:36:43.293Z,7.90
2022-11-10T03:39:11.380Z,7.90
2022-11-10T03:41:39.373Z,7.90
2022-11-10T03:44:07.907Z,7.90
2022-11-10T03:46:35.927Z,7.90
2022-11-10T03:49:05.510Z,7.90
2022-11-10T03:51:33.516Z,7.90
2022-11-10T03:54:01.519Z,7.90
2022-11-10T03:56:29.558Z,8.00
2022-11-10T03:58:57.585Z,7.80
2022-11-10T04:01:25.877Z,7.90
2022-11-10T04:03:53.941Z,7.90
2022-11-10T04:06:41.234Z,7.90
2022-11-10T04:09:10.098Z,7.90
2022-11-10T04:11:55.594Z,7.90
2022-11-10T04:14:41.131Z,7.90
2022-11-10T04:17:09.662Z,7.80
2022-11-10T04:19:37.653Z,7.80
2022-11-10T04:22:06.992Z,7.80
2022-11-10T04:24:34.961Z,7.80
2022-11-10T04:27:02.944Z,7.80
2022-11-10T04:29:30.970Z,7.80
2022-11-10T04:31:58.997Z,7.90
2022-11-10T04:34:26.982Z,7.80
2022-11-10T04:36:55.009Z,7.80
2022-11-10T04:39:24.337Z,7.80
2022-11-10T04:41:52.328Z,7.90
2022-11-10T04:44:20.271Z,7.80
2022-11-10T04:46:48.251Z,7.80
2022-11-10T04:49:16.227Z,7.80
2022-11-10T04:51:44.239Z,7.80
2022-11-10T04:54:12.529Z,7.80
2022-11-10T04:56:41.888Z,7.80
2022-11-10T04:59:09.917Z,7.90
2022-11-10T05:01:37.951Z,7.80
2022-11-10T05:04:06.633Z,7.80
2022-11-10T05:06:34.657Z,7.90
2022-11-10T05:09:02.698Z,7.90
2022-11-10T05:11:30.677Z,8.00
2022-11-10T05:14:00.044Z,7.90
2022-11-10T05:16:28.079Z,7.90
2022-11-10T05:18:58.235Z,8.00
2022-11-10T05:21:26.255Z,7.90
2022-11-10T05:23:54.246Z,8.00
2022-11-10T05:26:22.249Z,8.00
2022-11-10T05:28:50.235Z,8.00
2022-11-10T05:31:19.615Z,8.00
2022-11-10T05:33:47.594Z,8.00
2022-11-10T05:36:15.572Z,8.00
2022-11-10T05:38:44.032Z,8.00
2022-11-10T05:41:12.850Z,8.00
2022-11-10T05:43:41.115Z,8.00
2022-11-10T05:46:09.109Z,8.10
2022-11-10T05:48:38.459Z,8.10
2022-11-10T05:51:06.941Z,8.10
2022-11-10T05:53:35.096Z,8.10
2022-11-10T05:56:03.081Z,8.10
2022-11-10T05:58:31.098Z,8.10
2022-11-10T06:00:59.328Z,8.10
2022-11-10T06:03:27.612Z,8.20
2022-11-10T06:05:57.761Z,8.20
2022-11-10T06:08:25.831Z,8.20
2022-11-10T06:10:54.626Z,8.20
2022-11-10T06:13:22.914Z,8.20
2022-11-10T06:15:51.190Z,8.20
2022-11-10T06:18:19.563Z,8.20
2022-11-10T06:20:48.008Z,8.20
2022-11-10T06:23:17.472Z,8.20
2022-11-10T06:25:46.034Z,8.20
2022-11-10T06:28:14.918Z,8.20
2022-11-10T06:30:43.203Z,8.30
2022-11-10T06:33:11.165Z,8.30
2022-11-10T06:35:39.190Z,8.20
2022-11-10T06:38:08.854Z,8.30
2022-11-10T06:40:38.321Z,8.30
2022-11-10T06:43:06.304Z,8.30
2022-11-10T06:45:34.288Z,8.30
2022-11-10T06:48:03.388Z,8.30
2022-11-10T06:50:31.881Z,8.30
2022-11-10T06:53:01.048Z,8.40
2022-11-10T06:55:29.478Z,8.30
2022-11-10T06:57:59.566Z,8.30
2022-11-10T07:00:28.644Z,8.40
2022-11-10T07:03:01.118Z,8.40
2022-11-10T07:05:29.204Z,8.40
2022-11-10T07:07:57.267Z,8.50
2022-11-10T07:10:25.251Z,8.50
2022-11-10T07:13:00.011Z,8.50
2022-11-10T07:15:28.495Z,8.50
2022-11-10T07:17:56.636Z,8.60
2022-11-10T07:20:26.134Z,8.50
2022-11-10T07:22:59.007Z,8.60
2022-11-10T07:25:27.263Z,8.60
2022-11-10T07:27:55.827Z,8.60
2022-11-10T07:30:26.647Z,8.60
2022-11-10T07:33:02.297Z,8.70
2022-11-10T07:35:31.042Z,8.70
2022-11-10T07:38:02.266Z,8.70
2022-11-10T07:40:30.469Z,8.70
2022-11-10T07:42:58.540Z,8.80
2022-11-10T07:45:28.353Z,8.80
2022-11-10T07:48:00.052Z,8.80
2022-11-10T07:50:28.141Z,8.90
2022-11-10T07:53:04.179Z,8.90
2022-11-10T07:55:32.197Z,8.90
2022-11-10T07:58:00.766Z,9.00
2022-11-10T08:00:30.287Z,9.00
2022-11-10T08:03:02.937Z,9.00
2022-11-10T08:05:31.145Z,9.00
2022-11-10T08:08:00.171Z,9.10
2022-11-10T08:10:28.646Z,9.10
2022-11-10T08:12:57.141Z,9.10
2022-11-10T08:15:25.763Z,9.10
2022-11-10T08:18:00.004Z,9.20
2022-11-10T08:20:28.204Z,9.20
2022-11-10T08:23:00.556Z,9.30
2022-11-10T08:25:34.412Z,9.30
2022-11-10T08:28:05.287Z,9.30
2022-11-10T08:30:33.703Z,9.40
2022-11-10T08:33:04.956Z,9.50
2022-11-10T08:35:36.304Z,9.40
2022-11-10T08:38:09.745Z,9.40
2022-11-10T08:40:38.366Z,9.50
2022-11-10T08:43:08.409Z,9.50
2022-11-10T08:45:37.031Z,9.50
2022-11-10T08:48:08.624Z,9.60
2022-11-10T08:50:36.639Z,9.60
2022-11-10T08:53:06.133Z,9.60
2022-11-10T08:55:34.371Z,9.60
2022-11-10T08:58:04.031Z,9.70
2022-11-10T09:00:33.733Z,9.70
2022-11-10T09:03:07.696Z,9.70
2022-11-10T09:05:36.724Z,9.70
2022-11-10T09:08:05.521Z,9.80
2022-11-10T09:10:34.210Z,9.80
2022-11-10T09:13:02.573Z,9.80
2022-11-10T09:15:31.354Z,9.90
2022-11-10T09:17:59.794Z,10.00
2022-11-10T09:20:29.846Z,9.90
2022-11-10T09:22:58.572Z,10.00
2022-11-10T09:25:26.584Z,10.00
2022-11-10T09:27:54.568Z,10.00
2022-11-10T09:30:22.710Z,10.00
2022-11-10T09:32:55.268Z,10.00
2022-11-10T09:35:23.725Z,10.10
2022-11-10T09:37:53.209Z,10.10
2022-11-10T09:40:25.016Z,10.10
2022-11-10T09:42:57.427Z,10.10
2022-11-10T09:45:28.841Z,10.10
2022-11-10T09:48:02.672Z,10.10
2022-11-10T09:50:41.061Z,10.10
2022-11-10T09:53:16.373Z,10.10
2022-11-10T09:55:47.985Z,10.10
2022-11-10T09:58:16.677Z,10.10
2022-11-10T10:00:51.001Z,10.20
2022-11-10T10:03:25.536Z,10.20
2022-11-10T10:06:02.456Z,10.30
2022-11-10T10:27:00.041Z,10.60
2022-11-10T10:29:37.467Z,10.70
2022-11-10T10:32:06.863Z,10.80
2022-11-10T10:34:35.507Z,10.80
2022-11-10T10:37:03.592Z,10.80
2022-11-10T10:39:37.258Z,10.90
2022-11-10T10:42:17.137Z,10.90
2022-11-10T10:45:13.948Z,10.90
2022-11-10T10:47:42.443Z,10.90
2022-11-10T10:50:23.070Z,10.90
2022-11-10T10:53:10.393Z,10.90
2022-11-10T10:55:39.436Z,10.90
2022-11-10T10:58:25.954Z,10.90
2022-11-10T11:00:57.511Z,10.90
2022-11-10T11:03:29.673Z,10.90
2022-11-10T11:06:07.030Z,10.90
2022-11-10T11:08:36.052Z,11.00
2022-11-10T11:11:11.953Z,11.00
2022-11-10T11:13:41.316Z,11.00
2022-11-10T11:16:12.450Z,11.00
2022-11-10T11:18:41.697Z,11.00
2022-11-10T11:21:15.273Z,11.10
2022-11-10T11:24:16.641Z,11.10
2022-11-10T11:26:53.266Z,11.00
2022-11-10T11:30:03.481Z,11.10
2022-11-10T11:32:57.671Z,11.10
2022-11-10T11:35:31.996Z,11.20
2022-11-10T11:38:11.581Z,11.20
2022-11-10T11:40:50.127Z,11.20
2022-11-10T11:43:41.771Z,11.20
2022-11-10T11:46:19.427Z,11.30
2022-11-10T11:48:55.922Z,11.30
2022-11-10T11:51:29.152Z,11.40
2022-11-10T11:54:28.834Z,11.30
2022-11-10T11:57:06.004Z,11.40
2022-11-10T12:00:01.122Z,11.50
2022-11-10T12:02:53.481Z,11.50
2022-11-10T12:05:36.655Z,11.50
2022-11-10T12:08:15.979Z,11.50
2022-11-10T12:10:51.524Z,11.50
2022-11-10T12:13:33.470Z,11.50
2022-11-10T12:16:07.286Z,11.50
2022-11-10T12:18:38.221Z,11.60
2022-11-10T12:21:20.147Z,11.50
2022-11-10T12:23:59.790Z,11.60
2022-11-10T12:26:36.365Z,11.60
2022-11-10T12:29:07.852Z,11.70
2022-11-10T12:31:38.199Z,11.70
2022-11-10T12:34:14.141Z,11.70
2022-11-10T12:36:42.474Z,11.70
2022-11-10T12:39:19.812Z,11.70
2022-11-10T12:41:54.638Z,11.80
2022-11-10T12:44:27.913Z,11.80
2022-11-10T12:46:59.021Z,11.90
2022-11-10T12:49:33.573Z,11.90
2022-11-10T12:52:11.443Z,11.80
2022-11-10T12:54:41.714Z,11.80
2022-11-10T12:57:15.451Z,11.80
2022-11-10T12:59:53.585Z,11.70
2022-11-10T13:02:29.514Z,11.70
2022-11-10T13:05:41.025Z,11.80
2022-11-10T13:08:23.348Z,11.70
2022-11-10T13:10:55.528Z,11.70
2022-11-10T13:13:24.925Z,11.80
2022-11-10T13:15:57.707Z,11.80
2022-11-10T13:18:58.910Z,11.80
2022-11-10T13:22:10.027Z,12.00
2022-11-10T13:24:39.653Z,12.10
2022-11-10T13:27:13.278Z,12.40
2022-11-10T13:29:58.179Z,12.60
2022-11-10T13:32:31.538Z,12.60
2022-11-10T13:35:32.698Z,12.60
2022-11-10T13:38:02.130Z,12.70
2022-11-10T13:40:34.985Z,13.00
2022-11-10T13:43:23.270Z,13.20
2022-11-10T13:46:03.236Z,13.00
2022-11-10T13:48:55.066Z,12.90
2022-11-10T13:51:32.799Z,12.70
2022-11-10T13:54:17.398Z,12.90
2022-11-10T13:56:58.372Z,12.90
2022-11-10T13:59:28.205Z,13.00
2022-11-10T14:02:49.701Z,12.90
2022-11-10T14:06:00.594Z,12.90
2022-11-10T14:08:34.304Z,12.90
2022-11-10T14:11:06.077Z,12.70
2022-11-10T14:13:41.498Z,12.70
2022-11-10T14:16:19.431Z,12.50
2022-11-10T14:19:01.093Z,12.40
2022-11-10T14:21:34.841Z,12.10
2022-11-10T14:24:12.377Z,11.90
2022-11-10T14:26:45.436Z,11.80
2022-11-10T14:29:31.372Z,11.70
2022-11-10T14:32:02.032Z,11.50
2022-11-10T14:34:31.266Z,11.40
2022-11-10T14:37:02.525Z,11.40
2022-11-10T14:39:33.406Z,11.30
2022-11-10T14:42:05.582Z,11.30
2022-11-10T14:44:35.558Z,11.10
2022-11-10T14:47:31.862Z,11.10
2022-11-10T14:50:08.467Z,10.90
2022-11-10T14:52:40.590Z,10.90
2022-11-10T14:55:15.324Z,10.80
2022-11-10T14:57:49.646Z,10.80
2022-11-10T15:00:25.143Z,10.70
2022-11-10T15:02:55.457Z,10.70
2022-11-10T15:05:24.621Z,10.60
2022-11-10T15:07:54.972Z,10.60
2022-11-10T15:10:25.088Z,10.60
2022-11-10T15:13:06.738Z,10.50
2022-11-10T15:15:34.769Z,10.50
2022-11-10T15:18:02.750Z,10.50
2022-11-10T15:20:36.624Z,10.50
2022-11-10T15:23:07.585Z,10.40
2022-11-10T15:25:37.897Z,10.50
2022-11-10T15:28:19.964Z,10.40
2022-11-10T15:30:53.739Z,10.40
2022-11-10T15:33:27.302Z,10.30
2022-11-10T15:35:56.620Z,10.30
2022-11-10T15:38:31.481Z,10.30
2022-11-10T15:41:12.636Z,10.20
2022-11-10T15:43:42.283Z,10.20
2022-11-10T15:46:17.794Z,10.10
2022-11-10T15:48:48.756Z,10.10
2022-11-10T15:51:25.602Z,10.10
2022-11-10T15:53:54.514Z,10.10
2022-11-10T15:56:24.958Z,10.00
2022-11-10T15:58:59.208Z,10.00
2022-11-10T16:01:30.167Z,10.00
2022-11-10T16:03:58.251Z,10.00
2022-11-10T16:06:27.495Z,10.00
2022-11-10T16:08:55.722Z,10.00
2022-11-10T16:11:24.454Z,10.00
2022-11-10T16:13:55.665Z,10.00
2022-11-10T16:16:24.112Z,9.90
2022-11-10T16:18:52.577Z,10.00
2022-11-10T16:21:22.568Z,10.00
2022-11-10T16:23:50.587Z,9.90
2022-11-10T16:26:22.328Z,9.90
2022-11-10T16:28:51.167Z,9.90
2022-11-10T16:31:22.544Z,9.90
2022-11-10T16:33:51.728Z,9.90
2022-11-10T16:36:26.039Z,9.90
2022-11-10T16:38:54.803Z,10.10
2022-11-10T16:41:23.453Z,9.90
2022-11-10T16:43:51.746Z,10.00
2022-11-10T16:46:23.610Z,9.90
2022-11-10T16:48:53.755Z,9.90
2022-11-10T16:51:28.787Z,9.80
2022-11-10T16:53:56.965Z,9.80
2022-11-10T16:56:26.801Z,9.80
2022-11-10T16:58:54.977Z,9.70
2022-11-10T17:01:27.739Z,9.60
2022-11-10T17:03:58.382Z,9.60
2022-11-10T17:06:28.388Z,9.50
2022-11-10T17:09:00.446Z,9.50
2022-11-10T17:11:28.493Z,9.60
2022-11-10T17:13:56.497Z,9.50
2022-11-10T17:16:29.534Z,9.40
2022-11-10T17:18:58.832Z,9.50
2022-11-10T17:21:32.718Z,9.40
2022-11-10T17:24:01.742Z,9.40
2022-11-10T17:26:31.188Z,9.40
2022-11-10T17:28:59.401Z,9.30
2022-11-10T17:31:28.806Z,9.30
2022-11-10T17:33:56.802Z,9.30
2022-11-10T17:36:25.208Z,9.30
2022-11-10T17:38:53.606Z,9.30
2022-11-10T17:41:22.086Z,9.20
2022-11-10T17:43:50.107Z,9.20
2022-11-10T17:46:18.130Z,9.20
2022-11-10T17:48:48.081Z,9.20
2022-11-10T17:51:20.781Z,9.10
2022-11-10T17:53:50.566Z,9.10
2022-11-10T17:56:18.905Z,9.10
2022-11-10T17:58:46.902Z,9.10
2022-11-10T18:01:17.977Z,9.00
2022-11-10T18:03:47.876Z,9.00
2022-11-10T18:06:16.077Z,9.10
2022-11-10T18:08:44.849Z,8.90
2022-11-10T18:11:15.065Z,8.90
2022-11-10T18:13:44.375Z,8.90
2022-11-10T18:16:13.934Z,8.90
2022-11-10T18:18:42.199Z,8.80
2022-11-10T18:21:12.550Z,8.80
2022-11-10T18:23:40.587Z,8.80
2022-11-10T18:26:11.423Z,8.70
2022-11-10T18:28:39.898Z,8.70
2022-11-10T18:31:08.603Z,8.70
2022-11-10T18:33:36.916Z,8.70
2022-11-10T18:36:05.366Z,8.70
2022-11-10T18:38:35.900Z,8.60
2022-11-10T18:41:18.386Z,8.50
2022-11-10T18:43:46.602Z,8.50
2022-11-10T18:46:14.898Z,8.50
2022-11-10T18:48:43.634Z,8.50
2022-11-10T18:51:11.723Z,8.40
2022-11-10T18:53:41.179Z,8.40
2022-11-10T18:56:09.236Z,8.40
2022-11-10T18:58:37.341Z,8.40
2022-11-10T19:01:06.134Z,8.50
2022-11-10T19:03:35.338Z,8.30
2022-11-10T19:06:05.141Z,8.30
2022-11-10T19:08:33.195Z,8.20
2022-11-10T19:11:06.161Z,8.30
2022-11-10T19:13:34.182Z,8.20
2022-11-10T19:16:05.452Z,8.20
2022-11-10T19:18:33.457Z,8.20
2022-11-10T19:21:05.590Z,8.10
2022-11-10T19:23:33.662Z,8.10
2022-11-10T19:26:03.676Z,7.60
2022-11-10T19:28:31.906Z,8.00
2022-11-10T19:31:03.007Z,8.00
2022-11-10T19:33:31.889Z,7.90
2022-11-10T19:36:04.346Z,7.90
2022-11-10T19:38:32.911Z,7.90
2022-11-10T19:41:05.762Z,7.80
2022-11-10T19:43:34.102Z,7.80
2022-11-10T19:46:06.816Z,7.80
2022-11-10T19:48:35.528Z,7.80
2022-11-10T19:51:05.070Z,7.80
2022-11-10T19:53:33.305Z,7.80
2022-11-10T19:56:04.184Z,7.80
2022-11-10T19:58:32.243Z,7.70
2022-11-10T20:01:02.019Z,7.80
2022-11-10T20:03:30.639Z,7.70
2022-11-10T20:06:00.228Z,7.70
2022-11-10T20:08:28.593Z,7.70
2022-11-10T20:11:00.224Z,7.70
2022-11-10T20:13:30.306Z,7.60
2022-11-10T20:15:58.294Z,7.70
2022-11-10T20:18:26.326Z,7.70
2022-11-10T20:20:54.872Z,7.60
2022-11-10T20:23:23.787Z,7.60
2022-11-10T20:26:02.677Z,7.60
2022-11-10T20:28:32.115Z,7.60
2022-11-10T20:31:00.799Z,7.40
2022-11-10T20:33:31.371Z,7.50
2022-11-10T20:36:05.259Z,7.40
2022-11-10T20:38:33.597Z,7.40
2022-11-10T20:41:06.176Z,7.40
2022-11-10T20:43:36.637Z,7.30
2022-11-10T20:46:05.890Z,7.40
2022-11-10T20:48:35.085Z,7.30
2022-11-10T20:51:09.244Z,7.30
2022-11-10T20:53:37.367Z,7.30
2022-11-10T20:56:06.332Z,7.20
2022-11-10T20:58:35.898Z,7.10
2022-11-10T21:01:06.059Z,7.10
2022-11-10T21:03:34.801Z,7.10
2022-11-10T21:06:03.285Z,7.00
2022-11-10T21:08:32.098Z,7.00
2022-11-10T21:11:01.660Z,7.00
2022-11-10T21:13:28.881Z,7.00
2022-11-10T21:16:00.287Z,7.00
2022-11-10T21:18:30.256Z,6.90
2022-11-10T21:20:58.310Z,6.90
2022-11-10T21:23:26.423Z,6.90
2022-11-10T21:25:55.097Z,6.90
2022-11-10T21:28:23.322Z,6.90
2022-11-10T21:30:51.469Z,6.80
2022-11-10T21:33:21.156Z,6.90
2022-11-10T21:35:49.611Z,6.80
2022-11-10T21:38:17.628Z,6.80
2022-11-10T21:40:45.704Z,6.80
2022-11-10T21:43:13.720Z,6.80
2022-11-10T21:45:41.802Z,6.80
2022-11-10T21:48:10.333Z,6.80
2022-11-10T21:50:39.697Z,6.80
2022-11-10T21:53:08.167Z,6.80
2022-11-10T21:55:36.250Z,6.80
2022-11-10T21:58:04.367Z,6.70
2022-11-10T22:00:32.500Z,6.70
2022-11-10T22:03:00.901Z,6.70
2022-11-10T22:05:29.236Z,6.90
2022-11-10T22:07:58.601Z,6.70
2022-11-10T22:10:44.121Z,6.70
2022-11-10T22:13:34.097Z,6.70
2022-11-10T22:16:19.758Z,6.70
2022-11-10T22:18:48.056Z,6.60
2022-11-10T22:21:16.085Z,6.60
2022-11-10T22:24:03.168Z,6.70
2022-11-10T22:26:31.187Z,6.60
2022-11-10T22:28:59.178Z,6.50
2022-11-10T22:31:27.191Z,6.70
2022-11-10T22:33:55.208Z,6.50
2022-11-10T22:36:23.247Z,6.50
2022-11-10T22:38:52.621Z,6.80
2022-11-10T22:41:37.893Z,6.50
2022-11-10T22:44:06.452Z,6.50
2022-11-10T22:46:36.328Z,6.50
2022-11-10T22:49:07.996Z,7.10
2022-11-10T22:51:36.994Z,6.50
2022-11-10T22:54:10.050Z,6.50
2022-11-10T22:56:38.431Z,6.50
2022-11-10T22:59:06.637Z,6.50
2022-11-10T23:01:34.992Z,6.50
2022-11-10T23:04:03.289Z,6.50
2022-11-10T23:06:31.597Z,6.50
2022-11-10T23:09:00.336Z,6.50
2022-11-10T23:11:31.444Z,6.60
2022-11-10T23:13:59.714Z,6.50
2022-11-10T23:16:29.585Z,6.50
2022-11-10T23:18:58.688Z,6.50
2022-11-10T23:21:29.869Z,6.50
2022-11-10T23:23:57.916Z,6.50
2022-11-10T23:26:27.214Z,6.50
2022-11-10T23:28:57.030Z,6.60
2022-11-10T23:31:26.734Z,6.50
2022-11-10T23:33:57.569Z,6.50
2022-11-10T23:36:27.043Z,6.40
2022-11-10T23:38:56.010Z,6.50
2022-11-10T23:41:26.112Z,6.40
2022-11-10T23:43:54.668Z,6.50
2022-11-10T23:46:24.034Z,6.50
2022-11-10T23:48:52.087Z,6.50
2022-11-10T23:51:20.091Z,6.50
2022-11-10T23:53:48.097Z,6.50
2022-11-10T23:56:16.905Z,6.50
2022-11-10T23:58:44.892Z,6.50
